createdAt,value
2018-07-10T00:00:01.290Z,20.10
2018-07-10T00:01:17.162Z,20.10
2018-07-10T00:02:33.976Z,20.10
2018-07-10T00:04:03.776Z,20.10
2018-07-10T00:05:19.341Z,20.00
2018-07-10T00:08:47.043Z,20.00
2018-07-10T00:10:18.494Z,20.00
2018-07-10T00:11:31.253Z,20.10
2018-07-10T00:12:36.010Z,20.10
2018-07-10T00:13:40.669Z,20.10
2018-07-10T00:14:45.246Z,20.10
2018-07-10T00:15:50.028Z,20.10
2018-07-10T00:16:55.215Z,20.40
2018-07-10T00:18:00.684Z,20.10
2018-07-10T00:19:05.866Z,20.10
2018-07-10T00:20:11.215Z,20.10
2018-07-10T00:21:15.757Z,20.10
2018-07-10T00:22:20.818Z,20.10
2018-07-10T00:23:25.794Z,20.10
2018-07-10T00:24:30.716Z,20.10
2018-07-10T00:25:36.239Z,20.10
2018-07-10T00:26:43.389Z,20.10
2018-07-10T00:27:48.031Z,20.10
2018-07-10T00:28:53.020Z,20.00
2018-07-10T00:29:57.748Z,20.10
2018-07-10T00:32:07.367Z,22.20
2018-07-10T00:33:12.037Z,20.00
2018-07-10T00:34:17.711Z,20.00
2018-07-10T00:35:23.042Z,20.10
2018-07-10T00:36:27.639Z,20.00
2018-07-10T00:37:32.524Z,20.00
2018-07-10T00:38:48.694Z,20.00
2018-07-10T00:39:53.662Z,19.90
2018-07-10T00:40:58.757Z,19.90
2018-07-10T00:42:04.810Z,19.90
2018-07-10T00:43:11.625Z,19.90
2018-07-10T00:44:16.463Z,19.90
2018-07-10T00:45:21.185Z,19.90
2018-07-10T00:46:26.416Z,19.80
2018-07-10T00:47:31.594Z,19.90
2018-07-10T00:48:36.442Z,19.90
2018-07-10T00:49:41.023Z,19.90
2018-07-10T00:50:46.214Z,19.90
2018-07-10T00:51:50.978Z,19.80
2018-07-10T00:52:55.843Z,19.80
2018-07-10T00:54:01.746Z,19.90
2018-07-10T00:55:06.590Z,19.80
2018-07-10T00:56:11.781Z,19.80
2018-07-10T00:57:18.091Z,19.90
2018-07-10T00:58:23.031Z,19.80
2018-07-10T00:59:28.252Z,19.80
2018-07-10T01:00:34.221Z,19.80
2018-07-10T01:01:38.838Z,19.80
2018-07-10T01:02:43.719Z,19.80
2018-07-10T01:03:48.633Z,19.80
2018-07-10T01:04:53.686Z,19.80
2018-07-10T01:05:58.857Z,19.80
2018-07-10T01:07:04.169Z,19.80
2018-07-10T01:08:09.023Z,19.80
2018-07-10T01:09:15.697Z,19.80
2018-07-10T01:10:20.602Z,20.00
2018-07-10T01:11:25.329Z,19.70
2018-07-10T01:12:30.398Z,19.70
2018-07-10T01:13:35.346Z,19.70
2018-07-10T01:14:40.531Z,19.80
2018-07-10T01:15:45.698Z,19.70
2018-07-10T01:18:47.429Z,19.70
2018-07-10T01:19:53.053Z,19.60
2018-07-10T01:20:58.248Z,19.60
2018-07-10T01:22:03.508Z,19.70
2018-07-10T01:23:08.803Z,19.70
2018-07-10T01:24:14.690Z,19.70
2018-07-10T01:25:19.796Z,19.70
2018-07-10T01:26:25.528Z,19.60
2018-07-10T01:27:30.220Z,19.60
2018-07-10T01:28:35.299Z,19.60
2018-07-10T01:29:45.711Z,19.60
2018-07-10T01:30:51.004Z,19.60
2018-07-10T01:31:56.835Z,19.50
2018-07-10T01:33:01.856Z,19.50
2018-07-10T01:34:08.299Z,19.50
2018-07-10T01:35:12.998Z,19.50
2018-07-10T01:36:17.635Z,19.50
2018-07-10T01:38:57.824Z,19.60
2018-07-10T01:40:05.420Z,19.40
2018-07-10T01:41:10.096Z,19.50
2018-07-10T01:42:14.683Z,19.60
2018-07-10T01:43:20.321Z,19.40
2018-07-10T01:44:28.398Z,19.40
2018-07-10T01:45:33.145Z,19.40
2018-07-10T01:46:37.918Z,19.40
2018-07-10T01:47:42.644Z,19.40
2018-07-10T01:48:47.350Z,19.30
2018-07-10T01:49:52.210Z,19.20
2018-07-10T01:50:56.856Z,19.20
2018-07-10T01:52:01.684Z,19.10
2018-07-10T01:53:06.848Z,19.10
2018-07-10T01:54:11.537Z,19.10
2018-07-10T01:55:16.401Z,19.10
2018-07-10T01:56:21.203Z,19.00
2018-07-10T01:57:26.767Z,19.00
2018-07-10T01:58:32.118Z,19.00
2018-07-10T01:59:37.924Z,19.00
2018-07-10T02:00:43.815Z,18.90
2018-07-10T02:01:48.672Z,19.00
2018-07-10T02:02:53.666Z,18.90
2018-07-10T02:04:01.012Z,18.90
2018-07-10T02:05:06.283Z,18.90
2018-07-10T02:06:11.945Z,18.90
2018-07-10T02:07:16.911Z,18.90
2018-07-10T02:08:21.769Z,18.90
2018-07-10T02:09:27.147Z,18.90
2018-07-10T02:10:32.248Z,19.00
2018-07-10T02:11:37.192Z,19.00
2018-07-10T02:12:41.982Z,18.90
2018-07-10T02:13:47.140Z,18.90
2018-07-10T02:14:51.902Z,18.90
2018-07-10T02:15:56.682Z,18.90
2018-07-10T02:17:01.238Z,18.90
2018-07-10T02:18:05.950Z,18.90
2018-07-10T02:19:10.934Z,18.90
2018-07-10T02:20:15.670Z,18.90
2018-07-10T02:21:20.393Z,18.80
2018-07-10T02:22:25.894Z,18.90
2018-07-10T02:23:37.821Z,18.80
2018-07-10T02:24:43.381Z,18.80
2018-07-10T02:26:52.807Z,18.70
2018-07-10T02:27:58.084Z,18.70
2018-07-10T02:29:02.854Z,18.70
2018-07-10T02:30:07.704Z,18.70
2018-07-10T02:31:12.640Z,18.70
2018-07-10T02:32:17.445Z,18.70
2018-07-10T02:34:26.302Z,18.80
2018-07-10T02:35:31.378Z,18.80
2018-07-10T02:36:36.578Z,18.80
2018-07-10T02:37:42.249Z,18.80
2018-07-10T02:38:50.089Z,18.80
2018-07-10T02:39:55.019Z,18.80
2018-07-10T02:41:00.354Z,18.70
2018-07-10T02:42:05.303Z,18.70
2018-07-10T02:43:10.474Z,18.70
2018-07-10T02:44:15.346Z,18.60
2018-07-10T02:45:20.438Z,18.60
2018-07-10T02:46:25.754Z,18.60
2018-07-10T02:47:31.864Z,18.60
2018-07-10T02:48:36.994Z,18.50
2018-07-10T02:49:42.189Z,18.50
2018-07-10T02:50:48.459Z,18.40
2018-07-10T02:51:59.161Z,18.50
2018-07-10T02:53:04.118Z,18.40
2018-07-10T02:54:09.147Z,18.50
2018-07-10T02:55:13.987Z,18.40
2018-07-10T02:56:20.422Z,18.50
2018-07-10T02:57:25.638Z,18.40
2018-07-10T02:58:32.902Z,18.40
2018-07-10T02:59:42.427Z,18.40
2018-07-10T03:00:48.172Z,18.30
2018-07-10T03:01:52.992Z,18.30
2018-07-10T03:02:58.100Z,18.20
2018-07-10T03:04:02.957Z,18.30
2018-07-10T03:05:08.371Z,18.20
2018-07-10T03:06:13.307Z,18.20
2018-07-10T03:07:19.680Z,18.20
2018-07-10T03:08:24.446Z,18.20
2018-07-10T03:09:29.198Z,18.20
2018-07-10T03:10:33.979Z,18.10
2018-07-10T03:11:38.834Z,18.10
2018-07-10T03:12:44.300Z,18.10
2018-07-10T03:13:49.792Z,18.10
2018-07-10T03:14:55.024Z,18.10
2018-07-10T03:15:59.826Z,18.10
2018-07-10T03:17:04.651Z,18.20
2018-07-10T03:18:09.449Z,18.20
2018-07-10T03:19:14.290Z,18.20
2018-07-10T03:20:19.474Z,18.30
2018-07-10T03:21:24.178Z,18.30
2018-07-10T03:22:28.915Z,18.30
2018-07-10T03:23:33.795Z,18.30
2018-07-10T03:24:38.539Z,18.30
2018-07-10T03:25:43.317Z,18.30
2018-07-10T03:26:48.881Z,18.30
2018-07-10T03:27:53.737Z,18.40
2018-07-10T03:28:58.555Z,18.30
2018-07-10T03:30:03.853Z,18.40
2018-07-10T03:31:08.567Z,18.20
2018-07-10T03:32:13.395Z,18.40
2018-07-10T03:33:18.082Z,18.40
2018-07-10T03:34:23.806Z,18.40
2018-07-10T03:35:28.606Z,18.40
2018-07-10T03:36:33.526Z,18.40
2018-07-10T03:37:38.711Z,18.40
2018-07-10T03:38:47.105Z,18.40
2018-07-10T03:39:52.461Z,18.40
2018-07-10T03:40:57.262Z,18.40
2018-07-10T03:42:02.678Z,18.20
2018-07-10T03:43:08.313Z,18.40
2018-07-10T03:44:13.334Z,18.30
2018-07-10T03:45:18.718Z,18.30
2018-07-10T03:46:24.198Z,18.30
2018-07-10T03:47:29.197Z,18.20
2018-07-10T03:48:34.194Z,18.20
2018-07-10T03:49:39.618Z,18.30
2018-07-10T03:50:45.309Z,18.30
2018-07-10T03:51:50.361Z,18.30
2018-07-10T03:52:55.827Z,18.30
2018-07-10T03:54:00.886Z,18.30
2018-07-10T03:55:10.218Z,18.30
2018-07-10T03:56:15.262Z,18.40
2018-07-10T03:57:20.829Z,18.30
2018-07-10T03:58:26.263Z,18.30
2018-07-10T03:59:33.879Z,18.30
2018-07-10T04:00:38.965Z,18.40
2018-07-10T04:01:44.175Z,18.40
2018-07-10T04:02:51.714Z,18.30
2018-07-10T04:03:56.557Z,18.30
2018-07-10T04:05:01.331Z,18.30
2018-07-10T04:06:07.640Z,18.30
2018-07-10T04:07:12.707Z,18.30
2018-07-10T04:08:17.467Z,18.30
2018-07-10T04:09:22.256Z,18.30
2018-07-10T04:10:33.834Z,18.30
2018-07-10T04:11:48.066Z,18.30
2018-07-10T04:12:52.967Z,18.30
2018-07-10T04:13:57.845Z,18.30
2018-07-10T04:15:03.926Z,18.30
2018-07-10T04:16:08.736Z,18.30
2018-07-10T04:17:15.178Z,18.20
2018-07-10T04:18:27.139Z,18.20
2018-07-10T04:19:32.303Z,18.20
2018-07-10T04:20:53.312Z,18.20
2018-07-10T04:21:58.823Z,18.10
2018-07-10T04:23:03.593Z,18.10
2018-07-10T04:24:16.070Z,18.20
2018-07-10T04:25:21.045Z,18.10
2018-07-10T04:26:25.679Z,18.10
2018-07-10T04:27:34.653Z,18.10
2018-07-10T04:28:39.455Z,18.10
2018-07-10T04:29:49.863Z,18.10
2018-07-10T04:31:03.622Z,18.00
2018-07-10T04:32:13.707Z,18.00
2018-07-10T04:33:18.512Z,18.00
2018-07-10T04:34:23.918Z,18.10
2018-07-10T04:35:30.296Z,18.10
2018-07-10T04:36:35.428Z,18.10
2018-07-10T04:37:41.930Z,18.10
2018-07-10T04:38:48.826Z,18.10
2018-07-10T04:39:53.672Z,18.20
2018-07-10T04:41:08.823Z,18.10
2018-07-10T04:43:38.419Z,18.10
2018-07-10T04:44:43.438Z,18.20
2018-07-10T04:45:48.475Z,18.20
2018-07-10T04:46:58.233Z,18.20
2018-07-10T04:48:03.119Z,18.30
2018-07-10T04:49:16.611Z,18.30
2018-07-10T04:50:37.193Z,18.30
2018-07-10T04:51:48.305Z,18.30
2018-07-10T04:53:00.399Z,18.30
2018-07-10T04:54:13.283Z,18.40
2018-07-10T04:55:18.189Z,18.30
2018-07-10T04:56:23.714Z,18.30
2018-07-10T04:57:33.143Z,18.30
2018-07-10T04:58:37.967Z,18.30
2018-07-10T04:59:42.702Z,18.30
2018-07-10T05:00:58.284Z,18.10
2018-07-10T05:02:03.262Z,18.20
2018-07-10T05:03:08.248Z,18.20
2018-07-10T05:04:14.942Z,18.20
2018-07-10T05:05:19.936Z,18.20
2018-07-10T05:06:25.028Z,18.20
2018-07-10T05:07:30.576Z,18.20
2018-07-10T05:08:35.722Z,18.20
2018-07-10T05:09:41.870Z,18.10
2018-07-10T05:10:46.718Z,18.20
2018-07-10T05:11:52.198Z,18.10
2018-07-10T05:12:58.074Z,18.20
2018-07-10T05:14:02.843Z,18.20
2018-07-10T05:15:07.572Z,18.30
2018-07-10T05:16:12.375Z,18.20
2018-07-10T05:17:17.694Z,18.20
2018-07-10T05:18:22.587Z,18.10
2018-07-10T05:19:27.347Z,18.00
2018-07-10T05:20:33.394Z,18.00
2018-07-10T05:21:38.819Z,18.00
2018-07-10T05:22:43.657Z,18.00
2018-07-10T05:23:50.021Z,18.00
2018-07-10T05:24:54.898Z,18.00
2018-07-10T05:26:00.198Z,18.10
2018-07-10T05:27:05.963Z,18.10
2018-07-10T05:28:10.770Z,18.00
2018-07-10T05:29:16.397Z,17.90
2018-07-10T05:30:21.402Z,17.90
2018-07-10T05:31:26.222Z,18.00
2018-07-10T05:32:32.762Z,18.00
2018-07-10T05:33:37.931Z,18.00
2018-07-10T05:34:42.753Z,18.00
2018-07-10T05:35:47.523Z,18.00
2018-07-10T05:36:52.871Z,18.00
2018-07-10T05:37:57.830Z,18.10
2018-07-10T05:39:06.659Z,18.10
2018-07-10T05:40:12.576Z,18.10
2018-07-10T05:41:23.819Z,18.10
2018-07-10T05:42:28.765Z,18.20
2018-07-10T05:43:34.034Z,18.20
2018-07-10T05:44:39.457Z,18.10
2018-07-10T05:45:44.612Z,18.20
2018-07-10T05:46:50.579Z,18.20
2018-07-10T05:48:02.630Z,18.20
2018-07-10T05:50:17.974Z,18.20
2018-07-10T05:51:23.398Z,18.20
2018-07-10T05:52:28.708Z,18.20
2018-07-10T05:53:34.150Z,18.20
2018-07-10T05:54:39.906Z,18.20
2018-07-10T05:55:51.094Z,18.20
2018-07-10T05:56:55.766Z,18.20
2018-07-10T05:58:01.367Z,18.20
2018-07-10T05:59:07.214Z,18.30
2018-07-10T06:00:11.905Z,18.30
2018-07-10T06:01:16.620Z,18.30
2018-07-10T06:02:21.424Z,18.30
2018-07-10T06:03:26.068Z,18.30
2018-07-10T06:04:30.855Z,18.30
2018-07-10T06:05:35.983Z,18.20
2018-07-10T06:06:41.212Z,18.20
2018-07-10T06:07:46.025Z,18.20
2018-07-10T06:08:51.913Z,18.20
2018-07-10T06:09:56.936Z,18.10
2018-07-10T06:11:01.694Z,18.10
2018-07-10T06:12:06.731Z,18.10
2018-07-10T06:13:11.471Z,18.10
2018-07-10T06:14:16.178Z,18.10
2018-07-10T06:15:20.925Z,18.10
2018-07-10T06:16:25.650Z,18.10
2018-07-10T06:17:31.278Z,18.10
2018-07-10T06:18:37.334Z,18.10
2018-07-10T06:19:42.214Z,18.10
2018-07-10T06:20:46.924Z,18.10
2018-07-10T06:21:53.038Z,18.20
2018-07-10T06:22:58.456Z,18.20
2018-07-10T06:24:08.477Z,18.20
2018-07-10T06:25:15.404Z,18.20
2018-07-10T06:26:23.585Z,18.30
2018-07-10T06:27:39.719Z,18.30
2018-07-10T06:29:03.221Z,18.40
2018-07-10T06:30:11.723Z,18.40
2018-07-10T06:31:21.192Z,18.50
2018-07-10T06:32:27.890Z,18.50
2018-07-10T06:33:33.194Z,18.60
2018-07-10T06:34:40.199Z,18.60
2018-07-10T06:36:51.390Z,18.60
2018-07-10T06:37:56.500Z,18.70
2018-07-10T06:39:13.643Z,18.80
2018-07-10T06:40:19.967Z,18.70
2018-07-10T06:42:39.435Z,18.80
2018-07-10T06:43:52.571Z,18.70
2018-07-10T06:44:57.394Z,18.80
2018-07-10T06:46:02.191Z,18.70
2018-07-10T06:47:13.519Z,18.70
2018-07-10T06:48:18.482Z,18.80
2018-07-10T06:49:30.105Z,18.60
2018-07-10T06:50:36.995Z,18.70
2018-07-10T06:51:42.016Z,18.70
2018-07-10T06:52:47.623Z,18.70
2018-07-10T06:53:55.491Z,18.80
2018-07-10T06:55:09.636Z,18.80
2018-07-10T06:56:17.631Z,18.80
2018-07-10T06:57:50.414Z,18.80
2018-07-10T06:58:58.594Z,18.80
2018-07-10T07:00:09.378Z,18.70
2018-07-10T07:01:15.871Z,18.70
2018-07-10T07:02:21.654Z,18.70
2018-07-10T07:03:29.687Z,18.70
2018-07-10T07:04:36.217Z,18.60
2018-07-10T07:05:41.402Z,18.80
2018-07-10T07:06:46.325Z,18.60
2018-07-10T07:07:50.888Z,18.60
2018-07-10T07:08:55.888Z,18.50
2018-07-10T07:10:01.198Z,18.60
2018-07-10T07:11:06.479Z,18.60
2018-07-10T07:12:11.835Z,18.60
2018-07-10T07:13:17.068Z,18.50
2018-07-10T07:14:22.205Z,18.50
2018-07-10T07:15:27.100Z,18.50
2018-07-10T07:16:32.430Z,18.50
2018-07-10T07:17:38.295Z,18.50
2018-07-10T07:18:45.479Z,18.50
2018-07-10T07:19:50.319Z,18.50
2018-07-10T07:20:56.013Z,18.50
2018-07-10T07:22:01.195Z,18.50
2018-07-10T07:23:07.214Z,18.50
2018-07-10T07:24:11.791Z,18.50
2018-07-10T07:25:16.421Z,18.50
2018-07-10T07:26:22.081Z,18.50
2018-07-10T07:27:27.856Z,18.60
2018-07-10T07:28:33.983Z,18.50
2018-07-10T07:29:38.839Z,18.60
2018-07-10T07:30:43.878Z,18.60
2018-07-10T07:31:48.811Z,18.70
2018-07-10T07:32:53.574Z,18.70
2018-07-10T07:33:58.651Z,18.80
2018-07-10T07:35:03.520Z,18.80
2018-07-10T07:36:08.338Z,18.80
2018-07-10T07:37:13.658Z,18.90
2018-07-10T07:38:18.529Z,18.80
2018-07-10T07:39:24.209Z,18.90
2018-07-10T07:40:29.152Z,19.00
2018-07-10T07:41:34.995Z,19.00
2018-07-10T07:42:40.253Z,19.10
2018-07-10T07:43:45.121Z,19.00
2018-07-10T07:44:52.454Z,19.00
2018-07-10T07:45:57.824Z,19.00
2018-07-10T07:47:02.979Z,19.00
2018-07-10T07:48:08.627Z,19.00
2018-07-10T07:49:13.689Z,19.00
2018-07-10T07:50:20.713Z,19.00
2018-07-10T07:51:25.758Z,19.10
2018-07-10T07:52:32.546Z,19.10
2018-07-10T07:53:37.959Z,19.20
2018-07-10T07:54:42.999Z,19.20
2018-07-10T07:55:50.322Z,19.20
2018-07-10T07:56:55.293Z,19.20
2018-07-10T07:58:00.226Z,19.00
2018-07-10T07:59:05.415Z,19.10
2018-07-10T08:00:10.413Z,19.00
2018-07-10T08:01:15.351Z,19.00
2018-07-10T08:02:22.254Z,18.90
2018-07-10T08:03:27.935Z,18.90
2018-07-10T08:04:33.627Z,18.90
2018-07-10T08:05:39.634Z,18.90
2018-07-10T08:06:45.180Z,18.90
2018-07-10T08:07:51.099Z,18.90
2018-07-10T08:08:58.736Z,18.90
2018-07-10T08:10:04.831Z,18.90
2018-07-10T08:11:09.807Z,18.90
2018-07-10T08:12:15.239Z,19.00
2018-07-10T08:13:21.348Z,18.90
2018-07-10T08:14:26.345Z,19.00
2018-07-10T08:15:31.339Z,19.00
2018-07-10T08:16:37.213Z,19.00
2018-07-10T08:17:42.815Z,18.90
2018-07-10T08:18:48.053Z,18.90
2018-07-10T08:19:53.188Z,18.90
2018-07-10T08:20:59.489Z,18.90
2018-07-10T08:22:04.419Z,18.90
2018-07-10T08:23:09.639Z,18.90
2018-07-10T08:24:14.827Z,18.90
2018-07-10T08:25:23.105Z,18.90
2018-07-10T08:26:28.223Z,19.00
2018-07-10T08:27:33.349Z,19.10
2018-07-10T08:28:38.801Z,19.10
2018-07-10T08:29:44.692Z,19.20
2018-07-10T08:30:50.425Z,19.20
2018-07-10T08:31:55.722Z,19.20
2018-07-10T08:33:01.770Z,19.20
2018-07-10T08:34:07.212Z,19.20
2018-07-10T08:35:12.253Z,19.20
2018-07-10T08:36:17.332Z,19.20
2018-07-10T08:37:22.319Z,19.20
2018-07-10T08:38:38.485Z,19.30
2018-07-10T08:39:43.334Z,19.30
2018-07-10T08:40:48.456Z,19.40
2018-07-10T08:41:53.682Z,19.40
2018-07-10T08:42:58.588Z,19.40
2018-07-10T08:44:04.124Z,19.40
2018-07-10T08:45:09.265Z,19.40
2018-07-10T08:46:15.385Z,19.50
2018-07-10T08:47:20.785Z,19.50
2018-07-10T08:48:26.842Z,19.50
2018-07-10T08:49:35.475Z,19.40
2018-07-10T08:50:41.140Z,19.40
2018-07-10T08:51:48.496Z,19.40
2018-07-10T08:52:53.707Z,19.40
2018-07-10T08:53:58.826Z,19.40
2018-07-10T08:55:04.546Z,19.40
2018-07-10T08:56:12.009Z,19.40
2018-07-10T08:57:17.755Z,19.50
2018-07-10T08:58:23.141Z,19.50
2018-07-10T08:59:28.099Z,19.50
2018-07-10T09:00:32.863Z,19.50
2018-07-10T09:01:38.204Z,19.50
2018-07-10T09:02:43.211Z,19.60
2018-07-10T09:03:48.440Z,19.70
2018-07-10T09:04:54.106Z,19.60
2018-07-10T09:05:59.066Z,19.80
2018-07-10T09:07:07.979Z,19.80
2018-07-10T09:08:12.819Z,19.80
2018-07-10T09:09:18.046Z,19.90
2018-07-10T09:10:30.422Z,19.90
2018-07-10T09:11:35.643Z,19.90
2018-07-10T09:12:41.209Z,20.00
2018-07-10T09:13:47.191Z,20.00
2018-07-10T09:14:52.730Z,20.10
2018-07-10T09:15:58.277Z,20.00
2018-07-10T09:17:03.063Z,20.00
2018-07-10T09:18:08.642Z,20.10
2018-07-10T09:19:18.331Z,20.20
2018-07-10T09:20:29.208Z,20.20
2018-07-10T09:21:35.211Z,20.20
2018-07-10T09:22:40.139Z,20.20
2018-07-10T09:23:46.722Z,20.10
2018-07-10T09:24:57.137Z,20.10
2018-07-10T09:26:07.428Z,20.00
2018-07-10T09:27:15.511Z,20.00
2018-07-10T09:28:21.803Z,20.00
2018-07-10T09:29:27.918Z,20.00
2018-07-10T09:30:33.241Z,20.00
2018-07-10T09:31:39.112Z,19.90
2018-07-10T09:32:45.961Z,19.90
2018-07-10T09:33:50.874Z,19.90
2018-07-10T09:34:58.186Z,19.90
2018-07-10T09:36:04.358Z,19.90
2018-07-10T09:37:16.435Z,19.80
2018-07-10T09:38:21.307Z,19.80
2018-07-10T09:40:31.106Z,19.70
2018-07-10T09:41:36.744Z,19.70
2018-07-10T09:42:45.315Z,19.70
2018-07-10T09:43:50.460Z,19.70
2018-07-10T09:44:57.971Z,19.70
2018-07-10T09:46:02.797Z,19.80
2018-07-10T09:47:08.221Z,19.80
2018-07-10T09:48:13.014Z,19.70
2018-07-10T09:49:18.261Z,19.70
2018-07-10T09:50:23.217Z,19.70
2018-07-10T09:51:28.318Z,19.70
2018-07-10T09:52:35.641Z,19.90
2018-07-10T09:53:42.214Z,19.80
2018-07-10T09:54:47.285Z,19.90
2018-07-10T09:55:52.247Z,19.90
2018-07-10T09:56:57.436Z,19.90
2018-07-10T09:59:07.804Z,19.90
2018-07-10T10:00:13.432Z,19.90
2018-07-10T10:01:27.730Z,19.90
2018-07-10T10:02:35.707Z,20.00
2018-07-10T10:04:10.840Z,19.90
2018-07-10T10:05:15.923Z,19.90
2018-07-10T10:07:39.371Z,19.90
2018-07-10T10:09:00.405Z,19.90
2018-07-10T10:10:07.523Z,19.80
2018-07-10T10:11:19.390Z,19.70
2018-07-10T10:12:26.632Z,19.70
2018-07-10T10:13:36.351Z,19.60
2018-07-10T10:14:45.529Z,19.70
2018-07-10T10:15:51.571Z,19.70
2018-07-10T10:16:58.399Z,19.70
2018-07-10T10:18:09.198Z,19.70
2018-07-10T10:19:15.634Z,19.70
2018-07-10T10:20:21.924Z,19.60
2018-07-10T10:21:33.969Z,19.60
2018-07-10T10:22:42.886Z,19.50
2018-07-10T10:23:59.251Z,19.50
2018-07-10T10:25:07.370Z,19.50
2018-07-10T10:26:14.239Z,19.50
2018-07-10T10:30:42.480Z,19.60
2018-07-10T10:31:53.360Z,19.60
2018-07-10T10:32:59.217Z,19.60
2018-07-10T10:34:04.765Z,19.70
2018-07-10T10:35:09.833Z,19.80
2018-07-10T10:36:15.107Z,19.80
2018-07-10T10:37:21.624Z,19.70
2018-07-10T10:38:26.387Z,19.60
2018-07-10T10:39:32.643Z,19.50
2018-07-10T10:40:39.035Z,19.50
2018-07-10T10:41:44.727Z,19.50
2018-07-10T10:42:49.854Z,19.60
2018-07-10T10:43:54.829Z,19.60
2018-07-10T10:45:02.345Z,19.60
2018-07-10T10:46:07.680Z,19.70
2018-07-10T10:47:13.598Z,19.60
2018-07-10T10:48:19.418Z,19.60
2018-07-10T10:49:25.927Z,19.60
2018-07-10T10:50:30.711Z,19.60
2018-07-10T10:51:35.625Z,19.60
2018-07-10T10:52:42.223Z,19.60
2018-07-10T10:53:48.102Z,19.60
2018-07-10T10:54:53.272Z,19.70
2018-07-10T10:55:58.187Z,19.80
2018-07-10T10:57:03.275Z,19.80
2018-07-10T10:58:11.607Z,19.80
2018-07-10T10:59:17.545Z,19.90
2018-07-10T11:00:22.903Z,20.00
2018-07-10T11:01:30.765Z,20.00
2018-07-10T11:02:35.699Z,19.90
2018-07-10T11:03:41.087Z,20.00
2018-07-10T11:04:47.053Z,20.00
2018-07-10T11:05:53.779Z,20.00
2018-07-10T11:07:00.168Z,20.10
2018-07-10T11:08:06.272Z,20.10
2018-07-10T11:09:12.185Z,20.10
2018-07-10T11:10:19.651Z,20.20
2018-07-10T11:11:24.401Z,20.10
2018-07-10T11:12:32.745Z,20.10
2018-07-10T11:13:37.669Z,20.10
2018-07-10T11:14:44.004Z,20.00
2018-07-10T11:15:50.634Z,20.00
2018-07-10T11:16:55.742Z,19.90
2018-07-10T11:18:08.065Z,19.80
2018-07-10T11:19:25.084Z,19.80
2018-07-10T11:20:41.473Z,19.80
2018-07-10T11:22:08.526Z,19.70
2018-07-10T11:23:21.229Z,19.70
2018-07-10T11:24:27.218Z,19.70
2018-07-10T11:25:38.400Z,19.70
2018-07-10T11:26:48.793Z,19.70
2018-07-10T11:28:02.459Z,19.60
2018-07-10T11:29:08.955Z,19.60
2018-07-10T11:30:14.663Z,19.60
2018-07-10T11:32:32.606Z,19.50
2018-07-10T11:33:40.003Z,19.50
2018-07-10T11:34:45.307Z,19.40
2018-07-10T11:35:52.593Z,19.40
2018-07-10T11:36:58.744Z,19.30
2018-07-10T11:38:07.584Z,19.40
2018-07-10T11:39:15.804Z,19.40
2018-07-10T11:40:33.163Z,19.40
2018-07-10T11:41:43.771Z,19.40
2018-07-10T11:42:50.096Z,19.40
2018-07-10T11:43:56.441Z,19.40
2018-07-10T11:45:02.592Z,19.40
2018-07-10T11:46:08.424Z,19.40
2018-07-10T11:49:25.512Z,19.50
2018-07-10T11:50:31.355Z,19.50
2018-07-10T11:51:46.432Z,19.50
2018-07-10T11:52:52.232Z,19.60
2018-07-10T11:54:04.232Z,19.60
2018-07-10T11:55:14.723Z,19.70
2018-07-10T11:56:20.204Z,19.70
2018-07-10T11:57:26.731Z,19.70
2018-07-10T11:58:32.490Z,19.80
2018-07-10T11:59:37.813Z,19.70
2018-07-10T12:00:43.820Z,19.70
2018-07-10T12:01:52.393Z,19.70
2018-07-10T12:03:00.672Z,19.70
2018-07-10T12:04:07.464Z,19.50
2018-07-10T12:05:14.618Z,19.70
2018-07-10T12:06:19.967Z,19.60
2018-07-10T12:07:27.316Z,19.60
2018-07-10T12:08:40.648Z,19.60
2018-07-10T12:11:58.507Z,19.50
2018-07-10T12:13:03.657Z,19.50
2018-07-10T12:14:08.570Z,19.60
2018-07-10T12:15:13.803Z,19.60
2018-07-10T12:16:19.322Z,19.50
2018-07-10T12:17:24.330Z,19.50
2018-07-10T12:18:29.361Z,19.50
2018-07-10T12:19:34.382Z,19.40
2018-07-10T12:20:41.863Z,19.40
2018-07-10T12:21:46.570Z,19.40
2018-07-10T12:22:52.995Z,19.40
2018-07-10T12:23:59.275Z,19.30
2018-07-10T12:25:06.232Z,19.30
2018-07-10T12:26:11.194Z,19.30
2018-07-10T12:27:16.390Z,19.30
2018-07-10T12:28:21.423Z,19.20
2018-07-10T12:29:26.319Z,19.20
2018-07-10T12:30:32.054Z,19.20
2018-07-10T12:31:37.207Z,19.20
2018-07-10T12:32:42.115Z,19.20
2018-07-10T12:33:49.699Z,19.10
2018-07-10T12:34:54.908Z,19.30
2018-07-10T12:36:00.202Z,19.30
2018-07-10T12:37:05.852Z,19.30
2018-07-10T12:38:10.670Z,19.30
2018-07-10T12:39:17.897Z,19.30
2018-07-10T12:40:23.970Z,19.30
2018-07-10T12:41:28.843Z,19.30
2018-07-10T12:42:37.261Z,19.30
2018-07-10T12:43:42.101Z,19.40
2018-07-10T12:44:47.977Z,19.40
2018-07-10T12:45:53.251Z,19.40
2018-07-10T12:46:59.059Z,19.40
2018-07-10T12:48:05.134Z,19.40
2018-07-10T12:49:10.432Z,19.30
2018-07-10T12:50:16.654Z,19.30
2018-07-10T12:51:24.894Z,19.40
2018-07-10T12:52:32.373Z,19.30
2018-07-10T12:53:40.637Z,19.30
2018-07-10T12:55:04.536Z,19.20
2018-07-10T12:56:10.933Z,19.10
2018-07-10T12:57:17.299Z,19.10
2018-07-10T12:58:24.565Z,19.10
2018-07-10T12:59:31.718Z,19.10
2018-07-10T13:00:39.706Z,19.10
2018-07-10T13:01:46.204Z,19.10
2018-07-10T13:02:52.465Z,19.10
2018-07-10T13:03:58.642Z,19.10
2018-07-10T13:05:05.227Z,19.10
2018-07-10T13:06:11.020Z,19.10
2018-07-10T13:07:16.232Z,19.10
2018-07-10T13:08:21.215Z,19.00
2018-07-10T13:09:26.042Z,19.00
2018-07-10T13:10:31.633Z,19.00
2018-07-10T13:11:36.498Z,18.80
2018-07-10T13:12:41.716Z,18.80
2018-07-10T13:13:48.912Z,18.70
2018-07-10T13:14:54.204Z,18.70
2018-07-10T13:16:00.611Z,18.70
2018-07-10T13:17:07.273Z,18.80
2018-07-10T13:18:15.244Z,18.80
2018-07-10T13:19:24.221Z,18.70
2018-07-10T13:20:30.575Z,18.70
2018-07-10T13:21:37.788Z,18.50
2018-07-10T13:22:42.706Z,18.60
2018-07-10T13:23:47.895Z,18.50
2018-07-10T13:24:58.440Z,18.50
2018-07-10T13:26:04.229Z,18.50
2018-07-10T13:27:09.265Z,18.50
2018-07-10T13:28:14.537Z,18.50
2018-07-10T13:29:20.642Z,18.50
2018-07-10T13:30:27.632Z,18.50
2018-07-10T13:31:32.644Z,18.50
2018-07-10T13:32:39.846Z,18.60
2018-07-10T13:33:48.434Z,18.70
2018-07-10T13:34:57.194Z,18.80
2018-07-10T13:36:04.212Z,18.90
2018-07-10T13:37:10.346Z,19.30
2018-07-10T13:38:16.945Z,19.10
2018-07-10T13:39:23.638Z,19.30
2018-07-10T13:40:29.082Z,19.30
2018-07-10T13:41:34.031Z,19.40
2018-07-10T13:42:51.210Z,19.40
2018-07-10T13:43:56.253Z,19.30
2018-07-10T13:45:01.197Z,19.40
2018-07-10T13:46:06.485Z,19.50
2018-07-10T13:47:14.190Z,19.60
2018-07-10T13:48:20.714Z,19.70
2018-07-10T13:49:26.108Z,19.80
2018-07-10T13:50:33.808Z,19.90
2018-07-10T13:51:39.338Z,19.90
2018-07-10T13:52:44.824Z,20.00
2018-07-10T13:53:49.919Z,20.10
2018-07-10T13:54:54.983Z,20.10
2018-07-10T13:56:00.716Z,19.90
2018-07-10T13:57:09.193Z,20.10
2018-07-10T13:58:18.320Z,20.00
2018-07-10T13:59:30.508Z,20.00
2018-07-10T14:00:43.343Z,19.90
2018-07-10T14:01:48.457Z,19.90
2018-07-10T14:02:58.785Z,19.80
2018-07-10T14:04:06.246Z,19.90
2018-07-10T14:05:13.208Z,19.90
2018-07-10T14:06:18.672Z,20.00
2018-07-10T14:07:23.725Z,20.00
2018-07-10T14:08:30.443Z,20.10
2018-07-10T14:09:38.704Z,20.10
2018-07-10T14:16:10.372Z,20.20
2018-07-10T14:17:21.264Z,20.20
2018-07-10T14:18:27.211Z,20.20
2018-07-10T14:19:35.255Z,20.20
2018-07-10T14:20:49.649Z,20.30
2018-07-10T14:21:59.664Z,20.20
2018-07-10T14:23:08.841Z,20.20
2018-07-10T14:24:15.714Z,20.20
2018-07-10T14:25:26.417Z,20.20
2018-07-10T14:26:31.382Z,20.30
2018-07-10T14:27:36.484Z,20.40
2018-07-10T14:28:43.230Z,20.40
2018-07-10T14:29:49.849Z,20.50
2018-07-10T14:30:57.261Z,20.60
2018-07-10T14:32:03.940Z,20.60
2018-07-10T14:33:11.283Z,20.60
2018-07-10T14:34:19.430Z,20.50
2018-07-10T14:35:27.370Z,20.40
2018-07-10T14:36:32.850Z,20.40
2018-07-10T14:37:38.456Z,20.40
2018-07-10T14:38:44.426Z,20.40
2018-07-10T14:39:52.140Z,20.40
2018-07-10T14:40:57.342Z,20.40
2018-07-10T14:42:04.461Z,20.40
2018-07-10T14:43:10.929Z,20.40
2018-07-10T14:44:18.259Z,20.30
2018-07-10T14:45:27.238Z,23.00
2018-07-10T14:46:35.439Z,20.20
2018-07-10T14:47:40.881Z,20.30
2018-07-10T14:48:52.096Z,20.20